Foster Falls, Virginia
Current Conditions -  °F | °C
As of 7:55 PM on Tuesday 21 Oct 2014 (Local Time) from KHLX Reporting Station
Overcast Overcast  
Wind Chill: 38°   Ceiling: 6000
Heat Index: 45°   Visibility: 10mi
Dew Point: 40°   Wind: 16mph
Humidity: 84%   Direction: 320°NW
Pressure: 29.99"   Gusts: 21mph
Location:  36.9453°N, 80.9266°W
Report Text: KHLX 212355Z AUTO 32014G18KT 10SM SCT020 SCT030 OVC060 07/05 A2999 RMK AO2 T00710045 10145 20070
Loading
Personal Weather Stations






























Interactive Weather Map
Tropical Storm Tracking
New forecast layout! Learn more

10-Day Weather Forecast

Advertisements
Track Severe Weather on mobile